createdAt,value
2022-08-11T00:02:05.458Z,19.42
2022-08-11T00:04:45.464Z,19.51
2022-08-11T00:07:15.014Z,19.52
2022-08-11T00:09:44.826Z,19.52
2022-08-11T00:12:18.815Z,19.42
2022-08-11T00:14:58.556Z,19.43
2022-08-11T00:17:32.053Z,19.31
2022-08-11T00:20:16.240Z,19.25
2022-08-11T00:22:49.466Z,19.16
2022-08-11T00:25:21.546Z,19.14
2022-08-11T00:27:50.868Z,19.12
2022-08-11T00:30:20.523Z,19.06
2022-08-11T00:32:59.295Z,18.98
2022-08-11T00:35:55.090Z,18.90
2022-08-11T00:38:30.073Z,18.84
2022-08-11T00:41:12.790Z,18.83
2022-08-11T00:44:07.917Z,18.85
2022-08-11T00:46:52.351Z,18.85
2022-08-11T00:49:39.355Z,18.83
2022-08-11T00:52:30.757Z,18.65
2022-08-11T00:55:47.336Z,18.64
2022-08-11T00:59:35.140Z,18.67
2022-08-11T01:02:19.076Z,18.64
2022-08-11T01:05:37.066Z,18.52
2022-08-11T01:09:03.400Z,18.56
2022-08-11T01:12:21.305Z,18.44
2022-08-11T01:15:32.338Z,18.37
2022-08-11T01:19:10.140Z,18.36
2022-08-11T01:22:26.141Z,18.22
2022-08-11T01:26:02.661Z,18.16
2022-08-11T01:29:34.423Z,18.18
2022-08-11T01:33:20.861Z,18.11
2022-08-11T01:36:57.254Z,18.08
2022-08-11T01:40:32.074Z,17.95
2022-08-11T01:44:12.797Z,17.99
2022-08-11T01:46:52.624Z,17.92
2022-08-11T01:50:09.848Z,17.93
2022-08-11T01:52:43.562Z,17.93
2022-08-11T01:55:25.116Z,17.84
2022-08-11T01:58:10.963Z,17.67
2022-08-11T02:01:00.252Z,17.63
2022-08-11T02:03:45.480Z,17.72
2022-08-11T02:06:41.629Z,17.74
2022-08-11T02:09:31.278Z,17.56
2022-08-11T02:12:15.503Z,17.47
2022-08-11T02:15:05.368Z,17.54
2022-08-11T02:17:54.938Z,17.51
2022-08-11T02:20:49.308Z,17.42
2022-08-11T02:24:06.693Z,17.40
2022-08-11T02:26:42.542Z,17.33
2022-08-11T02:29:23.025Z,17.24
2022-08-11T02:32:30.775Z,17.22
2022-08-11T02:35:16.121Z,17.16
2022-08-11T02:38:00.171Z,17.12
2022-08-11T02:40:44.261Z,17.12
2022-08-11T02:43:36.142Z,17.05
2022-08-11T02:46:23.591Z,16.96
2022-08-11T02:49:23.982Z,16.93
2022-08-11T02:52:10.134Z,16.93
2022-08-11T02:54:55.365Z,16.88
2022-08-11T02:57:35.161Z,16.80
2022-08-11T03:00:11.445Z,16.83
2022-08-11T03:02:56.075Z,16.85
2022-08-11T03:05:43.271Z,16.74
2022-08-11T03:08:51.433Z,16.84
2022-08-11T03:12:01.400Z,16.82
2022-08-11T03:15:01.752Z,16.70
2022-08-11T03:17:43.704Z,16.64
2022-08-11T03:20:33.332Z,16.64
2022-08-11T03:23:20.630Z,16.60
2022-08-11T03:25:59.940Z,16.58
2022-08-11T03:28:35.840Z,16.62
2022-08-11T03:31:24.917Z,16.55
2022-08-11T03:34:06.832Z,16.49
2022-08-11T03:37:39.709Z,16.43
2022-08-11T03:40:43.148Z,16.46
2022-08-11T03:43:30.552Z,16.37
2022-08-11T03:46:10.086Z,16.31
2022-08-11T03:48:51.050Z,16.37
2022-08-11T03:51:44.723Z,16.38
2022-08-11T03:54:39.773Z,16.32
2022-08-11T03:58:00.911Z,16.39
2022-08-11T04:00:58.248Z,16.36
2022-08-11T04:04:50.663Z,16.26
2022-08-11T04:08:11.799Z,16.21
2022-08-11T04:11:38.460Z,16.13
2022-08-11T04:15:00.382Z,16.11
2022-08-11T04:18:29.973Z,16.13
2022-08-11T04:21:45.826Z,16.12
2022-08-11T04:24:51.246Z,16.06
2022-08-11T04:28:01.186Z,16.07
2022-08-11T04:30:49.190Z,15.98
2022-08-11T04:34:36.564Z,15.95
2022-08-11T04:37:51.329Z,15.93
2022-08-11T04:41:16.449Z,15.91
2022-08-11T04:44:52.923Z,15.89
2022-08-11T04:48:04.275Z,15.88
2022-08-11T04:51:16.911Z,15.87
2022-08-11T04:54:19.110Z,15.90
2022-08-11T04:57:13.776Z,15.87
2022-08-11T05:00:23.856Z,15.86
2022-08-11T05:03:54.904Z,15.92
2022-08-11T05:07:20.252Z,15.97
2022-08-11T05:10:24.986Z,16.03
2022-08-11T05:13:20.838Z,16.08
2022-08-11T05:16:13.351Z,16.06
2022-08-11T05:19:08.564Z,16.06
2022-08-11T05:21:59.253Z,16.03
2022-08-11T05:24:57.057Z,16.05
2022-08-11T05:27:55.060Z,16.10
2022-08-11T05:30:48.602Z,16.15
2022-08-11T05:33:44.273Z,16.20
2022-08-11T05:36:26.334Z,16.28
2022-08-11T05:39:20.587Z,16.29
2022-08-11T05:42:30.306Z,16.28
2022-08-11T05:45:50.703Z,16.32
2022-08-11T05:48:39.321Z,16.38
2022-08-11T05:51:30.426Z,16.42
2022-08-11T05:54:28.259Z,16.45
2022-08-11T05:57:02.762Z,16.49
2022-08-11T05:59:34.317Z,16.58
2022-08-11T06:02:05.949Z,16.68
2022-08-11T06:04:38.403Z,16.73
2022-08-11T06:07:10.300Z,16.79
2022-08-11T06:09:48.648Z,16.85
2022-08-11T06:12:21.595Z,16.90
2022-08-11T06:14:57.661Z,16.97
2022-08-11T06:17:38.647Z,17.03
2022-08-11T06:20:13.729Z,17.09
2022-08-11T06:22:50.987Z,17.14
2022-08-11T06:25:22.771Z,17.20
2022-08-11T06:27:57.696Z,17.28
2022-08-11T06:30:39.718Z,17.33
2022-08-11T06:33:13.562Z,17.39
2022-08-11T06:36:04.360Z,17.47
2022-08-11T06:39:01.603Z,17.53
2022-08-11T06:41:45.738Z,17.63
2022-08-11T06:44:26.456Z,17.70
2022-08-11T06:47:01.844Z,17.76
2022-08-11T06:49:56.620Z,17.84
2022-08-11T06:52:36.513Z,17.92
2022-08-11T06:55:56.951Z,18.00
2022-08-11T06:58:20.045Z,18.08
2022-08-11T07:00:54.538Z,18.17
2022-08-11T07:03:27.526Z,18.25
2022-08-11T07:06:07.412Z,18.35
2022-08-11T07:09:38.395Z,18.45
2022-08-11T07:12:59.227Z,18.57
2022-08-11T07:16:12.465Z,18.68
2022-08-11T07:18:55.173Z,18.81
2022-08-11T07:22:02.795Z,18.90
2022-08-11T07:25:02.935Z,19.07
2022-08-11T07:28:01.032Z,19.20
2022-08-11T07:30:31.116Z,19.35
2022-08-11T07:33:03.998Z,19.46
2022-08-11T07:35:38.505Z,19.61
2022-08-11T07:38:25.344Z,19.74
2022-08-11T07:40:59.317Z,19.87
2022-08-11T07:43:28.108Z,19.99
2022-08-11T07:46:16.011Z,20.09
2022-08-11T07:49:02.578Z,20.25
2022-08-11T07:51:48.325Z,20.39
2022-08-11T07:54:17.592Z,20.50
2022-08-11T07:56:54.911Z,20.61
2022-08-11T08:00:03.330Z,20.71
2022-08-11T08:02:50.511Z,20.82
2022-08-11T08:05:38.661Z,20.92
2022-08-11T08:08:27.217Z,21.02
2022-08-11T08:11:15.352Z,21.13
2022-08-11T08:14:03.174Z,21.22
2022-08-11T08:16:50.739Z,21.31
2022-08-11T08:19:22.556Z,21.38
2022-08-11T08:21:52.896Z,21.45
2022-08-11T08:24:24.464Z,21.51
2022-08-11T08:27:03.254Z,21.57
2022-08-11T08:29:55.709Z,21.65
2022-08-11T08:32:25.609Z,21.75
2022-08-11T08:34:57.809Z,21.80
2022-08-11T08:37:47.221Z,21.89
2022-08-11T08:40:16.848Z,21.99
2022-08-11T08:42:55.070Z,22.09
2022-08-11T08:45:28.034Z,22.18
2022-08-11T08:48:13.344Z,22.25
2022-08-11T08:51:15.429Z,22.35
2022-08-11T08:53:53.464Z,22.42
2022-08-11T08:56:29.434Z,22.50
2022-08-11T08:59:02.575Z,22.56
2022-08-11T09:01:42.447Z,22.66
2022-08-11T09:04:15.226Z,22.73
2022-08-11T09:06:48.757Z,22.78
2022-08-11T09:09:23.062Z,22.87
2022-08-11T09:11:53.611Z,22.91
2022-08-11T09:14:49.820Z,22.94
2022-08-11T09:17:23.548Z,23.00
2022-08-11T09:20:00.475Z,23.06
2022-08-11T09:23:14.470Z,23.12
2022-08-11T09:26:00.642Z,23.21
2022-08-11T09:28:31.752Z,23.31
2022-08-11T09:31:03.304Z,23.39
2022-08-11T09:33:36.302Z,23.54
2022-08-11T09:36:26.956Z,23.72
2022-08-11T09:39:14.406Z,23.88
2022-08-11T09:42:00.637Z,23.98
2022-08-11T09:44:49.240Z,24.07
2022-08-11T09:47:26.699Z,24.19
2022-08-11T09:50:01.432Z,24.30
2022-08-11T09:52:36.008Z,24.36
2022-08-11T09:55:11.679Z,24.47
2022-08-11T09:58:00.307Z,24.58
2022-08-11T10:00:37.282Z,24.67
2022-08-11T10:03:10.954Z,24.76
2022-08-11T10:06:07.726Z,24.81
2022-08-11T10:08:42.076Z,24.86
2022-08-11T10:11:18.338Z,24.91
2022-08-11T10:14:33.646Z,24.98
2022-08-11T10:16:56.053Z,25.06
2022-08-11T10:19:26.101Z,25.11
2022-08-11T10:22:15.244Z,25.10
2022-08-11T10:25:12.272Z,25.16
2022-08-11T10:28:29.044Z,25.25
2022-08-11T10:30:51.444Z,25.29
2022-08-11T10:33:42.986Z,25.30
2022-08-11T10:36:27.914Z,25.34
2022-08-11T10:38:59.644Z,25.37
2022-08-11T10:42:06.930Z,25.44
2022-08-11T10:44:41.175Z,25.56
2022-08-11T10:47:30.892Z,25.68
2022-08-11T10:50:18.875Z,25.74
2022-08-11T10:53:09.053Z,25.75
2022-08-11T10:55:58.583Z,25.77
2022-08-11T10:58:46.731Z,25.78
2022-08-11T11:01:16.981Z,25.87
2022-08-11T11:03:48.024Z,25.91
2022-08-11T11:06:30.056Z,25.95
2022-08-11T11:09:05.352Z,25.98
2022-08-11T11:12:01.755Z,26.02
2022-08-11T11:14:58.821Z,26.07
2022-08-11T11:17:49.335Z,26.15
2022-08-11T11:20:37.462Z,26.24
2022-08-11T11:23:17.894Z,26.27
2022-08-11T11:26:38.429Z,26.33
2022-08-11T11:29:45.494Z,26.38
2022-08-11T11:32:28.986Z,26.44
2022-08-11T11:35:39.242Z,26.48
2022-08-11T11:38:13.840Z,26.52
2022-08-11T11:40:44.164Z,26.58
2022-08-11T11:43:13.496Z,26.61
2022-08-11T11:45:44.947Z,26.66
2022-08-11T11:48:14.770Z,26.69
2022-08-11T11:50:44.429Z,26.72
2022-08-11T11:53:14.590Z,26.71
2022-08-11T11:55:45.189Z,26.78
2022-08-11T11:58:33.245Z,26.75
2022-08-11T12:01:20.174Z,26.78
2022-08-11T12:03:52.024Z,26.82
2022-08-11T12:06:26.065Z,26.86
2022-08-11T12:08:59.496Z,26.87
2022-08-11T12:11:49.257Z,26.90
2022-08-11T12:14:21.760Z,26.99
2022-08-11T12:16:52.382Z,27.09
2022-08-11T12:19:28.711Z,27.13
2022-08-11T12:22:21.390Z,27.16
2022-08-11T12:25:08.640Z,27.20
2022-08-11T12:27:39.133Z,27.27
2022-08-11T12:30:09.659Z,27.30
2022-08-11T12:32:47.613Z,27.38
2022-08-11T12:35:17.804Z,27.43
2022-08-11T12:38:02.596Z,27.46
2022-08-11T12:44:06.309Z,27.49
2022-08-11T12:46:38.270Z,27.50
2022-08-11T12:49:32.202Z,27.52
2022-08-11T12:52:12.758Z,27.49
2022-08-11T12:55:03.204Z,27.62
2022-08-11T12:57:55.303Z,27.72
2022-08-11T13:00:43.421Z,27.80
2022-08-11T13:03:32.488Z,27.82
2022-08-11T13:06:05.833Z,27.83
2022-08-11T13:08:39.008Z,27.83
2022-08-11T13:11:56.428Z,27.85
2022-08-11T13:14:18.252Z,27.87
2022-08-11T13:17:05.709Z,27.87
2022-08-11T13:19:36.398Z,27.90
2022-08-11T13:22:07.381Z,27.95
2022-08-11T13:24:37.889Z,27.99
2022-08-11T13:27:07.335Z,28.12
2022-08-11T13:29:37.103Z,28.19
2022-08-11T13:32:06.365Z,28.26
2022-08-11T13:34:41.683Z,28.32
2022-08-11T13:37:16.135Z,28.40
2022-08-11T13:39:48.030Z,28.46
2022-08-11T13:42:20.187Z,28.49
2022-08-11T13:44:49.583Z,28.49
2022-08-11T13:47:18.874Z,28.55
2022-08-11T13:49:51.261Z,28.61
2022-08-11T13:52:21.939Z,28.69
2022-08-11T13:54:53.296Z,28.77
2022-08-11T13:58:19.331Z,28.85
2022-08-11T14:00:26.861Z,28.98
2022-08-11T14:02:59.455Z,29.07
2022-08-11T14:05:32.687Z,29.13
2022-08-11T14:08:37.095Z,29.22
2022-08-11T14:12:21.517Z,29.34
2022-08-11T14:14:18.249Z,29.40
2022-08-11T14:16:51.179Z,29.45
2022-08-11T14:19:26.423Z,29.52
2022-08-11T14:22:08.643Z,29.60
2022-08-11T14:24:41.733Z,29.68
2022-08-11T14:28:22.234Z,29.76
2022-08-11T14:30:03.866Z,29.77
2022-08-11T14:32:33.084Z,29.85
2022-08-11T14:35:03.200Z,29.90
2022-08-11T14:37:31.853Z,29.96
2022-08-11T14:40:25.105Z,30.02
2022-08-11T14:43:20.121Z,30.11
2022-08-11T14:46:41.409Z,30.20
2022-08-11T14:49:11.305Z,30.34
2022-08-11T14:51:46.466Z,30.38
2022-08-11T14:54:34.354Z,30.49
2022-08-11T14:57:04.963Z,30.64
2022-08-11T14:59:35.372Z,30.73
2022-08-11T15:02:23.128Z,30.79
2022-08-11T15:04:53.139Z,30.87
2022-08-11T15:07:29.556Z,30.89
2022-08-11T15:10:16.297Z,30.92
2022-08-11T15:12:48.635Z,31.00
2022-08-11T15:15:36.682Z,30.99
2022-08-11T15:18:08.999Z,31.05
2022-08-11T15:20:55.474Z,31.13
2022-08-11T15:23:41.965Z,31.15
2022-08-11T15:26:15.304Z,31.23
2022-08-11T15:29:08.213Z,31.33
2022-08-11T15:31:57.269Z,31.36
2022-08-11T15:34:48.029Z,31.33
2022-08-11T15:37:28.609Z,31.37
2022-08-11T15:40:32.943Z,31.39
2022-08-11T15:43:29.174Z,31.40
2022-08-11T15:46:07.786Z,31.34
2022-08-11T15:48:48.380Z,31.26
2022-08-11T15:51:25.383Z,31.20
2022-08-11T15:53:59.021Z,31.19
2022-08-11T15:56:33.857Z,31.13
2022-08-11T15:59:41.753Z,31.09
2022-08-11T16:02:34.322Z,31.00
2022-08-11T16:05:09.528Z,31.00
2022-08-11T16:07:42.845Z,30.85
2022-08-11T16:10:21.660Z,30.82
2022-08-11T16:13:12.285Z,30.72
2022-08-11T16:16:06.008Z,30.67
2022-08-11T16:18:44.813Z,30.63
2022-08-11T16:21:33.956Z,30.61
2022-08-11T16:24:09.160Z,30.59
2022-08-11T16:27:08.155Z,30.60
2022-08-11T16:29:45.443Z,30.55
2022-08-11T16:32:20.625Z,30.54
2022-08-11T16:35:16.183Z,30.54
2022-08-11T16:38:04.514Z,30.52
2022-08-11T16:40:35.726Z,30.53
2022-08-11T16:43:26.174Z,30.47
2022-08-11T16:46:20.234Z,30.47
2022-08-11T16:48:52.748Z,30.44
2022-08-11T16:51:24.012Z,30.45
2022-08-11T16:54:04.549Z,30.46
2022-08-11T16:56:40.125Z,30.49
2022-08-11T16:59:17.309Z,30.45
2022-08-11T17:01:53.412Z,30.37
2022-08-11T17:04:58.231Z,30.32
2022-08-11T17:07:48.662Z,30.24
2022-08-11T17:10:52.302Z,30.25
2022-08-11T17:13:33.220Z,30.19
2022-08-11T17:16:12.607Z,30.16
2022-08-11T17:18:59.413Z,30.12
2022-08-11T17:21:34.353Z,30.08
2022-08-11T17:24:09.711Z,30.03
2022-08-11T17:26:57.018Z,30.00
2022-08-11T17:29:31.507Z,29.95
2022-08-11T17:32:21.082Z,29.94
2022-08-11T17:35:13.901Z,29.86
2022-08-11T17:37:45.546Z,29.81
2022-08-11T17:40:24.678Z,29.73
2022-08-11T17:43:12.983Z,29.66
2022-08-11T17:46:00.723Z,29.63
2022-08-11T17:48:32.763Z,29.57
2022-08-11T17:51:07.660Z,29.52
2022-08-11T17:54:18.102Z,29.47
2022-08-11T17:57:08.357Z,29.44
2022-08-11T17:59:53.497Z,29.39
2022-08-11T18:03:02.314Z,29.33
2022-08-11T18:05:34.595Z,29.28
2022-08-11T18:08:26.472Z,29.18
2022-08-11T18:11:17.260Z,29.13
2022-08-11T18:14:28.052Z,29.05
2022-08-11T18:17:14.620Z,28.94
2022-08-11T18:20:00.616Z,28.82
2022-08-11T18:22:54.712Z,28.72
2022-08-11T18:25:45.999Z,28.60
2022-08-11T18:28:35.953Z,28.49
2022-08-11T18:31:29.530Z,28.37
2022-08-11T18:34:29.430Z,28.24
2022-08-11T18:37:25.983Z,28.15
2022-08-11T18:40:21.021Z,28.04
2022-08-11T18:43:09.749Z,27.89
2022-08-11T18:46:06.953Z,27.76
2022-08-11T18:49:01.191Z,27.64
2022-08-11T18:51:47.958Z,27.52
2022-08-11T18:54:38.357Z,27.39
2022-08-11T18:57:28.000Z,27.25
2022-08-11T19:00:21.407Z,27.12
2022-08-11T19:03:10.327Z,26.99
2022-08-11T19:06:31.771Z,26.90
2022-08-11T19:09:14.527Z,26.82
2022-08-11T19:12:03.877Z,26.74
2022-08-11T19:14:56.365Z,26.67
2022-08-11T19:17:46.029Z,26.52
2022-08-11T19:20:36.970Z,26.44
2022-08-11T19:23:28.852Z,26.37
2022-08-11T19:26:17.438Z,26.32
2022-08-11T19:29:07.421Z,26.20
2022-08-11T19:31:56.279Z,26.11
2022-08-11T19:34:44.227Z,26.01
2022-08-11T19:37:31.380Z,25.90
2022-08-11T19:40:25.014Z,25.78
2022-08-11T19:43:25.863Z,25.67
2022-08-11T19:46:17.347Z,25.59
2022-08-11T19:49:08.130Z,25.48
2022-08-11T19:51:55.820Z,25.44
2022-08-11T19:54:45.665Z,25.32
2022-08-11T19:57:39.941Z,25.24
2022-08-11T20:00:32.307Z,25.06
2022-08-11T20:03:22.280Z,24.96
2022-08-11T20:06:09.940Z,24.84
2022-08-11T20:09:02.382Z,24.76
2022-08-11T20:11:53.783Z,24.65
2022-08-11T20:14:46.303Z,24.57
2022-08-11T20:17:35.811Z,24.48
2022-08-11T20:20:26.575Z,24.38
2022-08-11T20:23:16.132Z,24.31
2022-08-11T20:26:20.421Z,24.27
2022-08-11T20:29:12.593Z,24.15
2022-08-11T20:32:01.883Z,24.11
2022-08-11T20:34:55.966Z,24.05
2022-08-11T20:37:48.990Z,23.96
2022-08-11T20:40:41.419Z,23.90
2022-08-11T20:44:06.211Z,23.83
2022-08-11T20:46:41.493Z,23.61
2022-08-11T20:49:45.210Z,23.57
2022-08-11T20:52:42.660Z,23.47
2022-08-11T20:55:46.080Z,23.43
2022-08-11T21:01:45.549Z,23.26
2022-08-11T21:04:33.618Z,23.21
2022-08-11T21:07:29.144Z,23.17
2022-08-11T21:10:22.959Z,23.13
2022-08-11T21:13:24.998Z,23.00
2022-08-11T21:16:25.438Z,22.96
2022-08-11T21:19:55.112Z,22.90
2022-08-11T21:22:37.339Z,22.81
2022-08-11T21:25:27.927Z,22.73
2022-08-11T21:28:22.571Z,22.63
2022-08-11T21:31:11.727Z,22.45
2022-08-11T21:34:00.203Z,22.41
2022-08-11T21:36:49.627Z,22.35
2022-08-11T21:39:40.773Z,22.31
2022-08-11T21:42:29.210Z,22.22
2022-08-11T21:45:18.496Z,22.14
2022-08-11T21:48:06.837Z,22.11
2022-08-11T21:50:52.983Z,22.07
2022-08-11T21:53:39.932Z,22.07
2022-08-11T21:56:29.601Z,22.00
2022-08-11T21:59:17.090Z,21.93
2022-08-11T22:02:06.165Z,21.81
2022-08-11T22:04:55.438Z,21.66
2022-08-11T22:07:42.780Z,21.63
2022-08-11T22:10:42.427Z,21.58
2022-08-11T22:13:32.039Z,21.51
2022-08-11T22:16:18.612Z,21.51
2022-08-11T22:19:08.688Z,21.49
2022-08-11T22:22:03.512Z,21.44
2022-08-11T22:24:53.010Z,21.39
2022-08-11T22:27:39.853Z,21.25
2022-08-11T22:30:30.281Z,21.24
2022-08-11T22:33:24.459Z,21.23
2022-08-11T22:36:15.019Z,21.13
2022-08-11T22:39:04.346Z,21.14
2022-08-11T22:41:50.563Z,21.07
2022-08-11T22:44:36.905Z,21.02
2022-08-11T22:47:27.416Z,20.99
2022-08-11T22:50:28.450Z,20.85
2022-08-11T22:53:17.606Z,20.84
2022-08-11T22:56:05.072Z,20.83
2022-08-11T22:58:52.584Z,20.72
2022-08-11T23:01:38.673Z,20.66
2022-08-11T23:04:44.809Z,20.66
2022-08-11T23:07:51.015Z,20.66
2022-08-11T23:10:39.427Z,20.61
2022-08-11T23:13:28.063Z,20.44
2022-08-11T23:16:14.941Z,20.33
2022-08-11T23:19:01.447Z,20.32
2022-08-11T23:21:50.386Z,20.33
2022-08-11T23:24:37.750Z,20.34
2022-08-11T23:27:28.135Z,20.25
2022-08-11T23:30:19.309Z,20.21
2022-08-11T23:33:09.665Z,20.10
2022-08-11T23:36:03.579Z,20.13
2022-08-11T23:38:53.230Z,19.97
2022-08-11T23:41:40.179Z,20.00
2022-08-11T23:44:28.088Z,19.94
2022-08-11T23:47:19.228Z,19.81
2022-08-11T23:50:06.699Z,19.76
2022-08-11T23:52:53.753Z,19.65
2022-08-11T23:55:41.235Z,19.66
2022-08-11T23:58:27.629Z,19.61
